sensor_id;sensor_type;location;lat;lon;timestamp;temperature;humidity
47779;DHT22;33538;48.432;11.350;2023-10-31T00:01:16;12.10;99.90
47779;DHT22;33538;48.432;11.350;2023-10-31T00:03:43;12.10;99.90
47779;DHT22;33538;48.432;11.350;2023-10-31T00:06:10;12.00;99.90
47779;DHT22;33538;48.432;11.350;2023-10-31T00:08:37;12.00;99.90
47779;DHT22;33538;48.432;11.350;2023-10-31T00:11:04;12.00;99.90
47779;DHT22;33538;48.432;11.350;2023-10-31T00:13:31;12.00;99.90
47779;DHT22;33538;48.432;11.350;2023-10-31T00:15:58;12.00;99.90
47779;DHT22;33538;48.432;11.350;2023-10-31T00:18:26;12.00;99.90
47779;DHT22;33538;48.432;11.350;2023-10-31T00:20:53;12.00;99.90
47779;DHT22;33538;48.432;11.350;2023-10-31T00:23:20;12.00;99.90
47779;DHT22;33538;48.432;11.350;2023-10-31T00:25:46;12.00;99.90
47779;DHT22;33538;48.432;11.350;2023-10-31T00:28:13;12.00;99.90
47779;DHT22;33538;48.432;11.350;2023-10-31T00:30:40;12.00;99.90
47779;DHT22;33538;48.432;11.350;2023-10-31T00:33:07;11.90;99.90
47779;DHT22;33538;48.432;11.350;2023-10-31T00:35:35;11.90;99.90
47779;DHT22;33538;48.432;11.350;2023-10-31T00:38:02;11.90;99.90
47779;DHT22;33538;48.432;11.350;2023-10-31T00:40:29;11.90;99.90
47779;DHT22;33538;48.432;11.350;2023-10-31T00:42:56;11.90;99.90
47779;DHT22;33538;48.432;11.350;2023-10-31T00:45:23;11.90;99.90
47779;DHT22;33538;48.432;11.350;2023-10-31T00:47:49;11.90;99.90
47779;DHT22;33538;48.432;11.350;2023-10-31T00:50:16;11.90;99.90
47779;DHT22;33538;48.432;11.350;2023-10-31T00:52:45;11.90;99.90
47779;DHT22;33538;48.432;11.350;2023-10-31T00:55:11;11.90;99.90
47779;DHT22;33538;48.432;11.350;2023-10-31T00:57:38;11.90;99.90
47779;DHT22;33538;48.432;11.350;2023-10-31T01:00:06;11.90;99.90
47779;DHT22;33538;48.432;11.350;2023-10-31T01:02:33;11.90;99.90
47779;DHT22;33538;48.432;11.350;2023-10-31T01:05:00;11.90;99.90
47779;DHT22;33538;48.432;11.350;2023-10-31T01:07:27;11.90;99.90
47779;DHT22;33538;48.432;11.350;2023-10-31T01:09:55;11.90;99.90
47779;DHT22;33538;48.432;11.350;2023-10-31T01:12:22;11.90;99.90
47779;DHT22;33538;48.432;11.350;2023-10-31T01:14:49;11.90;99.90
47779;DHT22;33538;48.432;11.350;2023-10-31T01:17:16;11.90;99.90
47779;DHT22;33538;48.432;11.350;2023-10-31T01:19:43;11.90;99.90
47779;DHT22;33538;48.432;11.350;2023-10-31T01:22:09;11.90;99.90
47779;DHT22;33538;48.432;11.350;2023-10-31T01:24:36;11.90;99.90
47779;DHT22;33538;48.432;11.350;2023-10-31T01:27:05;11.90;99.90
47779;DHT22;33538;48.432;11.350;2023-10-31T01:29:31;11.80;99.90
47779;DHT22;33538;48.432;11.350;2023-10-31T01:31:58;11.80;99.90
47779;DHT22;33538;48.432;11.350;2023-10-31T01:34:31;11.80;99.90
47779;DHT22;33538;48.432;11.350;2023-10-31T01:36:58;11.80;99.90
47779;DHT22;33538;48.432;11.350;2023-10-31T01:39:24;11.80;99.90
47779;DHT22;33538;48.432;11.350;2023-10-31T01:41:51;11.80;99.90
47779;DHT22;33538;48.432;11.350;2023-10-31T01:44:19;11.80;99.90
47779;DHT22;33538;48.432;11.350;2023-10-31T01:46:46;11.80;99.90
47779;DHT22;33538;48.432;11.350;2023-10-31T01:49:13;11.80;99.90
47779;DHT22;33538;48.432;11.350;2023-10-31T01:51:40;11.80;99.90
47779;DHT22;33538;48.432;11.350;2023-10-31T01:54:09;11.70;99.90
47779;DHT22;33538;48.432;11.350;2023-10-31T01:56:37;11.80;99.90
47779;DHT22;33538;48.432;11.350;2023-10-31T01:59:05;11.80;99.90
47779;DHT22;33538;48.432;11.350;2023-10-31T02:01:37;11.70;99.90
47779;DHT22;33538;48.432;11.350;2023-10-31T02:04:04;11.70;99.90
47779;DHT22;33538;48.432;11.350;2023-10-31T02:06:31;11.80;99.90
47779;DHT22;33538;48.432;11.350;2023-10-31T02:08:58;11.70;99.90
47779;DHT22;33538;48.432;11.350;2023-10-31T02:11:25;11.80;99.90
47779;DHT22;33538;48.432;11.350;2023-10-31T02:13:52;11.80;99.90
47779;DHT22;33538;48.432;11.350;2023-10-31T02:16:18;11.80;99.90
47779;DHT22;33538;48.432;11.350;2023-10-31T02:18:47;11.80;99.90
47779;DHT22;33538;48.432;11.350;2023-10-31T02:21:13;11.80;99.90
47779;DHT22;33538;48.432;11.350;2023-10-31T02:23:42;11.70;99.90
47779;DHT22;33538;48.432;11.350;2023-10-31T02:26:09;11.80;99.90
47779;DHT22;33538;48.432;11.350;2023-10-31T02:28:35;11.70;99.90
47779;DHT22;33538;48.432;11.350;2023-10-31T02:31:03;11.80;99.90
47779;DHT22;33538;48.432;11.350;2023-10-31T02:33:30;11.70;99.90
47779;DHT22;33538;48.432;11.350;2023-10-31T02:35:56;11.70;99.90
47779;DHT22;33538;48.432;11.350;2023-10-31T02:38:23;11.70;99.90
47779;DHT22;33538;48.432;11.350;2023-10-31T02:40:51;11.80;99.90
47779;DHT22;33538;48.432;11.350;2023-10-31T02:43:18;11.80;99.90
47779;DHT22;33538;48.432;11.350;2023-10-31T02:45:45;11.80;99.90
47779;DHT22;33538;48.432;11.350;2023-10-31T02:48:12;11.70;99.90
47779;DHT22;33538;48.432;11.350;2023-10-31T02:50:39;11.70;99.90
47779;DHT22;33538;48.432;11.350;2023-10-31T02:53:05;11.80;99.90
47779;DHT22;33538;48.432;11.350;2023-10-31T02:55:32;11.70;99.90
47779;DHT22;33538;48.432;11.350;2023-10-31T02:58:00;11.70;99.90
47779;DHT22;33538;48.432;11.350;2023-10-31T03:00:27;11.70;99.90
47779;DHT22;33538;48.432;11.350;2023-10-31T03:02:54;11.70;99.90
47779;DHT22;33538;48.432;11.350;2023-10-31T03:05:21;11.70;99.90
47779;DHT22;33538;48.432;11.350;2023-10-31T03:07:48;11.60;99.90
47779;DHT22;33538;48.432;11.350;2023-10-31T03:10:15;11.60;99.90
47779;DHT22;33538;48.432;11.350;2023-10-31T03:12:42;11.60;99.90
47779;DHT22;33538;48.432;11.350;2023-10-31T03:15:10;11.70;99.90
47779;DHT22;33538;48.432;11.350;2023-10-31T03:17:37;11.60;99.90
47779;DHT22;33538;48.432;11.350;2023-10-31T03:20:05;11.60;99.90
47779;DHT22;33538;48.432;11.350;2023-10-31T03:22:32;11.60;99.90
47779;DHT22;33538;48.432;11.350;2023-10-31T03:24:59;11.60;99.90
47779;DHT22;33538;48.432;11.350;2023-10-31T03:27:25;11.60;99.90
47779;DHT22;33538;48.432;11.350;2023-10-31T03:29:52;11.60;99.90
47779;DHT22;33538;48.432;11.350;2023-10-31T03:32:20;11.60;99.90
47779;DHT22;33538;48.432;11.350;2023-10-31T03:34:47;11.60;99.90
47779;DHT22;33538;48.432;11.350;2023-10-31T03:37:14;11.60;99.90
47779;DHT22;33538;48.432;11.350;2023-10-31T03:39:41;11.60;99.90
47779;DHT22;33538;48.432;11.350;2023-10-31T03:42:07;11.60;99.90
47779;DHT22;33538;48.432;11.350;2023-10-31T03:44:34;11.60;99.90
47779;DHT22;33538;48.432;11.350;2023-10-31T03:47:01;11.60;99.90
47779;DHT22;33538;48.432;11.350;2023-10-31T03:49:29;11.60;99.90
47779;DHT22;33538;48.432;11.350;2023-10-31T03:51:56;11.60;99.90
47779;DHT22;33538;48.432;11.350;2023-10-31T03:54:23;11.60;99.90
47779;DHT22;33538;48.432;11.350;2023-10-31T03:56:50;11.60;99.90
47779;DHT22;33538;48.432;11.350;2023-10-31T03:59:17;11.50;99.90
47779;DHT22;33538;48.432;11.350;2023-10-31T04:01:43;11.50;99.90
47779;DHT22;33538;48.432;11.350;2023-10-31T04:04:10;11.50;99.90
47779;DHT22;33538;48.432;11.350;2023-10-31T04:06:38;11.50;99.90
47779;DHT22;33538;48.432;11.350;2023-10-31T04:09:05;11.50;99.90
47779;DHT22;33538;48.432;11.350;2023-10-31T04:11:32;11.50;99.90
47779;DHT22;33538;48.432;11.350;2023-10-31T04:13:59;11.50;99.90
47779;DHT22;33538;48.432;11.350;2023-10-31T04:16:26;11.50;99.90
47779;DHT22;33538;48.432;11.350;2023-10-31T04:18:52;11.50;99.90
47779;DHT22;33538;48.432;11.350;2023-10-31T04:21:19;11.50;99.90
47779;DHT22;33538;48.432;11.350;2023-10-31T04:23:47;11.50;99.90
47779;DHT22;33538;48.432;11.350;2023-10-31T04:26:14;11.50;99.90
47779;DHT22;33538;48.432;11.350;2023-10-31T04:28:41;11.50;99.90
47779;DHT22;33538;48.432;11.350;2023-10-31T04:31:08;11.50;99.90
47779;DHT22;33538;48.432;11.350;2023-10-31T04:33:35;11.50;99.90
47779;DHT22;33538;48.432;11.350;2023-10-31T04:36:02;11.40;99.90
47779;DHT22;33538;48.432;11.350;2023-10-31T04:38:29;11.40;99.90
47779;DHT22;33538;48.432;11.350;2023-10-31T04:40:57;11.40;99.90
47779;DHT22;33538;48.432;11.350;2023-10-31T04:43:24;11.40;99.90
47779;DHT22;33538;48.432;11.350;2023-10-31T04:45:51;11.40;99.90
47779;DHT22;33538;48.432;11.350;2023-10-31T04:48:17;11.40;99.90
47779;DHT22;33538;48.432;11.350;2023-10-31T04:50:44;11.40;99.90
47779;DHT22;33538;48.432;11.350;2023-10-31T04:53:11;11.40;99.90
47779;DHT22;33538;48.432;11.350;2023-10-31T04:55:38;11.40;99.90
47779;DHT22;33538;48.432;11.350;2023-10-31T04:58:06;11.40;99.90
47779;DHT22;33538;48.432;11.350;2023-10-31T05:00:33;11.40;99.90
47779;DHT22;33538;48.432;11.350;2023-10-31T05:03:00;11.40;99.90
47779;DHT22;33538;48.432;11.350;2023-10-31T05:05:27;11.40;99.90
47779;DHT22;33538;48.432;11.350;2023-10-31T05:07:53;11.40;99.90
47779;DHT22;33538;48.432;11.350;2023-10-31T05:10:20;11.40;99.90
47779;DHT22;33538;48.432;11.350;2023-10-31T05:12:47;11.40;99.90
47779;DHT22;33538;48.432;11.350;2023-10-31T05:15:16;11.40;99.90
47779;DHT22;33538;48.432;11.350;2023-10-31T05:17:42;11.30;99.90
47779;DHT22;33538;48.432;11.350;2023-10-31T05:20:10;11.40;99.90
47779;DHT22;33538;48.432;11.350;2023-10-31T05:22:37;11.40;99.90
47779;DHT22;33538;48.432;11.350;2023-10-31T05:25:04;11.30;99.90
47779;DHT22;33538;48.432;11.350;2023-10-31T05:27:31;11.40;99.90
47779;DHT22;33538;48.432;11.350;2023-10-31T05:30:00;11.40;99.90
47779;DHT22;33538;48.432;11.350;2023-10-31T05:32:28;11.40;99.90
47779;DHT22;33538;48.432;11.350;2023-10-31T05:34:55;11.40;99.90
47779;DHT22;33538;48.432;11.350;2023-10-31T05:37:25;11.40;99.90
47779;DHT22;33538;48.432;11.350;2023-10-31T05:39:52;11.40;99.90
47779;DHT22;33538;48.432;11.350;2023-10-31T05:42:18;11.40;99.90
47779;DHT22;33538;48.432;11.350;2023-10-31T05:44:45;11.40;99.90
47779;DHT22;33538;48.432;11.350;2023-10-31T05:47:12;11.40;99.90
47779;DHT22;33538;48.432;11.350;2023-10-31T05:49:42;11.40;99.90
47779;DHT22;33538;48.432;11.350;2023-10-31T05:52:09;11.40;99.90
47779;DHT22;33538;48.432;11.350;2023-10-31T05:54:36;11.30;99.90
47779;DHT22;33538;48.432;11.350;2023-10-31T05:57:03;11.30;99.90
47779;DHT22;33538;48.432;11.350;2023-10-31T05:59:29;11.40;99.90
47779;DHT22;33538;48.432;11.350;2023-10-31T06:01:56;11.40;99.90
47779;DHT22;33538;48.432;11.350;2023-10-31T06:04:23;11.30;99.90
47779;DHT22;33538;48.432;11.350;2023-10-31T06:06:51;11.30;99.90
47779;DHT22;33538;48.432;11.350;2023-10-31T06:09:18;11.30;99.90
47779;DHT22;33538;48.432;11.350;2023-10-31T06:11:45;11.30;99.90
47779;DHT22;33538;48.432;11.350;2023-10-31T06:14:12;11.30;99.90
47779;DHT22;33538;48.432;11.350;2023-10-31T06:16:40;11.30;99.90
47779;DHT22;33538;48.432;11.350;2023-10-31T06:19:07;11.30;99.90
47779;DHT22;33538;48.432;11.350;2023-10-31T06:21:34;11.30;99.90
47779;DHT22;33538;48.432;11.350;2023-10-31T06:24:02;11.30;99.90
47779;DHT22;33538;48.432;11.350;2023-10-31T06:26:29;11.30;99.90
47779;DHT22;33538;48.432;11.350;2023-10-31T06:28:56;11.30;99.90
47779;DHT22;33538;48.432;11.350;2023-10-31T06:31:43;11.30;99.90
47779;DHT22;33538;48.432;11.350;2023-10-31T06:34:10;11.30;99.90
47779;DHT22;33538;48.432;11.350;2023-10-31T06:36:36;11.30;99.90
47779;DHT22;33538;48.432;11.350;2023-10-31T06:39:05;11.30;99.90
47779;DHT22;33538;48.432;11.350;2023-10-31T06:41:32;11.30;99.90
47779;DHT22;33538;48.432;11.350;2023-10-31T06:43:59;11.30;99.90
47779;DHT22;33538;48.432;11.350;2023-10-31T06:46:26;11.30;99.90
47779;DHT22;33538;48.432;11.350;2023-10-31T06:48:53;11.30;99.90
47779;DHT22;33538;48.432;11.350;2023-10-31T06:51:19;11.30;99.90
47779;DHT22;33538;48.432;11.350;2023-10-31T06:53:46;11.30;99.90
47779;DHT22;33538;48.432;11.350;2023-10-31T06:56:14;11.20;99.90
47779;DHT22;33538;48.432;11.350;2023-10-31T06:58:41;11.20;99.90
47779;DHT22;33538;48.432;11.350;2023-10-31T07:01:08;11.20;99.90
47779;DHT22;33538;48.432;11.350;2023-10-31T07:03:35;11.20;99.90
47779;DHT22;33538;48.432;11.350;2023-10-31T07:06:02;11.20;99.90
47779;DHT22;33538;48.432;11.350;2023-10-31T07:08:29;11.20;99.90
47779;DHT22;33538;48.432;11.350;2023-10-31T07:10:56;11.20;99.90
47779;DHT22;33538;48.432;11.350;2023-10-31T07:13:27;11.20;99.90
47779;DHT22;33538;48.432;11.350;2023-10-31T07:15:53;11.20;99.90
47779;DHT22;33538;48.432;11.350;2023-10-31T07:18:20;11.20;99.90
47779;DHT22;33538;48.432;11.350;2023-10-31T07:20:47;11.20;99.90
47779;DHT22;33538;48.432;11.350;2023-10-31T07:23:14;11.20;99.90
47779;DHT22;33538;48.432;11.350;2023-10-31T07:25:41;11.20;99.90
47779;DHT22;33538;48.432;11.350;2023-10-31T07:28:08;11.20;99.90
47779;DHT22;33538;48.432;11.350;2023-10-31T07:30:36;11.20;99.90
47779;DHT22;33538;48.432;11.350;2023-10-31T07:33:03;11.20;99.90
47779;DHT22;33538;48.432;11.350;2023-10-31T07:35:30;11.20;99.90
47779;DHT22;33538;48.432;11.350;2023-10-31T07:37:57;11.20;99.90
47779;DHT22;33538;48.432;11.350;2023-10-31T07:40:24;11.20;99.90
47779;DHT22;33538;48.432;11.350;2023-10-31T07:42:50;11.20;99.90
47779;DHT22;33538;48.432;11.350;2023-10-31T07:45:17;11.20;99.90
47779;DHT22;33538;48.432;11.350;2023-10-31T07:47:45;11.20;99.90
47779;DHT22;33538;48.432;11.350;2023-10-31T07:50:12;11.20;99.90
47779;DHT22;33538;48.432;11.350;2023-10-31T07:52:39;11.20;99.90
47779;DHT22;33538;48.432;11.350;2023-10-31T07:55:07;11.20;99.90
47779;DHT22;33538;48.432;11.350;2023-10-31T07:57:33;11.30;99.90
47779;DHT22;33538;48.432;11.350;2023-10-31T08:00:00;11.20;99.90
47779;DHT22;33538;48.432;11.350;2023-10-31T08:02:27;11.30;99.90
47779;DHT22;33538;48.432;11.350;2023-10-31T08:04:55;11.30;99.90
47779;DHT22;33538;48.432;11.350;2023-10-31T08:07:22;11.30;99.90
47779;DHT22;33538;48.432;11.350;2023-10-31T08:09:49;11.30;99.90
47779;DHT22;33538;48.432;11.350;2023-10-31T08:12:16;11.30;99.90
47779;DHT22;33538;48.432;11.350;2023-10-31T08:14:43;11.30;99.90
47779;DHT22;33538;48.432;11.350;2023-10-31T08:17:09;11.30;99.90
47779;DHT22;33538;48.432;11.350;2023-10-31T08:19:37;11.30;99.90
47779;DHT22;33538;48.432;11.350;2023-10-31T08:22:05;11.40;99.90
47779;DHT22;33538;48.432;11.350;2023-10-31T08:24:32;11.40;99.90
47779;DHT22;33538;48.432;11.350;2023-10-31T08:26:58;11.40;99.90
47779;DHT22;33538;48.432;11.350;2023-10-31T08:29:25;11.40;99.90
47779;DHT22;33538;48.432;11.350;2023-10-31T08:31:52;11.40;99.90
47779;DHT22;33538;48.432;11.350;2023-10-31T08:34:19;11.50;99.90
47779;DHT22;33538;48.432;11.350;2023-10-31T08:36:46;11.50;99.90
47779;DHT22;33538;48.432;11.350;2023-10-31T08:39:14;11.50;99.90
47779;DHT22;33538;48.432;11.350;2023-10-31T08:41:50;11.50;99.90
47779;DHT22;33538;48.432;11.350;2023-10-31T08:44:17;11.50;99.90
47779;DHT22;33538;48.432;11.350;2023-10-31T08:46:43;11.60;99.90
47779;DHT22;33538;48.432;11.350;2023-10-31T08:49:10;11.50;99.90
47779;DHT22;33538;48.432;11.350;2023-10-31T08:51:37;11.50;99.90
47779;DHT22;33538;48.432;11.350;2023-10-31T08:54:04;11.60;99.90
47779;DHT22;33538;48.432;11.350;2023-10-31T08:56:32;11.50;99.90
47779;DHT22;33538;48.432;11.350;2023-10-31T08:58:59;11.60;99.90
47779;DHT22;33538;48.432;11.350;2023-10-31T09:01:27;11.60;99.90
47779;DHT22;33538;48.432;11.350;2023-10-31T09:03:53;11.50;99.90
47779;DHT22;33538;48.432;11.350;2023-10-31T09:06:20;11.50;99.90
47779;DHT22;33538;48.432;11.350;2023-10-31T09:08:47;11.50;99.90
47779;DHT22;33538;48.432;11.350;2023-10-31T09:11:14;11.50;99.90
47779;DHT22;33538;48.432;11.350;2023-10-31T09:13:42;11.50;99.90
47779;DHT22;33538;48.432;11.350;2023-10-31T09:16:09;11.50;99.90
47779;DHT22;33538;48.432;11.350;2023-10-31T09:18:36;11.60;99.90
47779;DHT22;33538;48.432;11.350;2023-10-31T09:21:03;11.50;99.90
47779;DHT22;33538;48.432;11.350;2023-10-31T09:23:30;11.50;99.90
47779;DHT22;33538;48.432;11.350;2023-10-31T09:25:57;11.50;99.90
47779;DHT22;33538;48.432;11.350;2023-10-31T09:28:25;11.50;99.90
47779;DHT22;33538;48.432;11.350;2023-10-31T09:30:53;11.50;99.90
47779;DHT22;33538;48.432;11.350;2023-10-31T09:33:20;11.50;99.90
47779;DHT22;33538;48.432;11.350;2023-10-31T09:35:47;11.50;99.90
47779;DHT22;33538;48.432;11.350;2023-10-31T09:38:14;11.50;99.90
47779;DHT22;33538;48.432;11.350;2023-10-31T09:40:41;11.50;99.90
47779;DHT22;33538;48.432;11.350;2023-10-31T09:43:08;11.50;99.90
47779;DHT22;33538;48.432;11.350;2023-10-31T09:45:35;11.40;99.90
47779;DHT22;33538;48.432;11.350;2023-10-31T09:48:05;11.50;99.90
47779;DHT22;33538;48.432;11.350;2023-10-31T09:50:33;11.50;99.90
47779;DHT22;33538;48.432;11.350;2023-10-31T09:53:01;11.50;99.90
47779;DHT22;33538;48.432;11.350;2023-10-31T09:55:29;11.50;99.90
47779;DHT22;33538;48.432;11.350;2023-10-31T09:57:55;11.50;99.90
47779;DHT22;33538;48.432;11.350;2023-10-31T10:00:22;11.50;99.90
47779;DHT22;33538;48.432;11.350;2023-10-31T10:02:49;11.50;99.90
47779;DHT22;33538;48.432;11.350;2023-10-31T10:05:19;11.40;99.90
47779;DHT22;33538;48.432;11.350;2023-10-31T10:07:46;11.50;99.90
47779;DHT22;33538;48.432;11.350;2023-10-31T10:10:13;11.50;99.90
47779;DHT22;33538;48.432;11.350;2023-10-31T10:12:41;11.50;99.90
47779;DHT22;33538;48.432;11.350;2023-10-31T10:15:08;11.50;99.90
47779;DHT22;33538;48.432;11.350;2023-10-31T10:17:36;11.50;99.90
47779;DHT22;33538;48.432;11.350;2023-10-31T10:20:08;11.50;99.90
47779;DHT22;33538;48.432;11.350;2023-10-31T10:22:40;11.50;99.90
47779;DHT22;33538;48.432;11.350;2023-10-31T10:25:07;11.50;99.90
47779;DHT22;33538;48.432;11.350;2023-10-31T10:27:34;11.50;99.90
47779;DHT22;33538;48.432;11.350;2023-10-31T10:30:02;11.50;99.90
47779;DHT22;33538;48.432;11.350;2023-10-31T10:32:28;11.50;99.90
47779;DHT22;33538;48.432;11.350;2023-10-31T10:34:55;11.50;99.90
47779;DHT22;33538;48.432;11.350;2023-10-31T10:37:22;11.50;99.90
47779;DHT22;33538;48.432;11.350;2023-10-31T10:39:52;11.50;99.90
47779;DHT22;33538;48.432;11.350;2023-10-31T10:42:19;11.50;99.90
47779;DHT22;33538;48.432;11.350;2023-10-31T10:44:49;11.50;99.90
47779;DHT22;33538;48.432;11.350;2023-10-31T10:47:18;11.50;99.90
47779;DHT22;33538;48.432;11.350;2023-10-31T10:49:47;11.60;99.90
47779;DHT22;33538;48.432;11.350;2023-10-31T10:52:20;11.50;99.90
47779;DHT22;33538;48.432;11.350;2023-10-31T10:54:53;11.60;99.90
47779;DHT22;33538;48.432;11.350;2023-10-31T10:57:32;11.60;99.90
47779;DHT22;33538;48.432;11.350;2023-10-31T11:00:04;11.60;99.90
47779;DHT22;33538;48.432;11.350;2023-10-31T11:02:32;11.60;99.90
47779;DHT22;33538;48.432;11.350;2023-10-31T11:04:59;11.60;99.90
47779;DHT22;33538;48.432;11.350;2023-10-31T11:07:28;11.60;99.90
47779;DHT22;33538;48.432;11.350;2023-10-31T11:09:57;11.60;99.90
47779;DHT22;33538;48.432;11.350;2023-10-31T11:12:25;11.60;99.90
47779;DHT22;33538;48.432;11.350;2023-10-31T11:14:52;11.60;99.90
47779;DHT22;33538;48.432;11.350;2023-10-31T11:17:24;11.70;99.90
47779;DHT22;33538;48.432;11.350;2023-10-31T11:19:52;11.70;99.90
47779;DHT22;33538;48.432;11.350;2023-10-31T11:22:19;11.70;99.90
47779;DHT22;33538;48.432;11.350;2023-10-31T11:24:49;11.70;99.90
47779;DHT22;33538;48.432;11.350;2023-10-31T11:27:18;11.70;99.90
47779;DHT22;33538;48.432;11.350;2023-10-31T11:29:45;11.80;99.90
47779;DHT22;33538;48.432;11.350;2023-10-31T11:32:11;11.80;99.90
47779;DHT22;33538;48.432;11.350;2023-10-31T11:34:39;11.80;99.90
47779;DHT22;33538;48.432;11.350;2023-10-31T11:37:23;11.80;99.90
47779;DHT22;33538;48.432;11.350;2023-10-31T11:40:18;11.80;99.90
47779;DHT22;33538;48.432;11.350;2023-10-31T11:42:51;11.80;99.90
47779;DHT22;33538;48.432;11.350;2023-10-31T11:45:26;11.80;99.90
47779;DHT22;33538;48.432;11.350;2023-10-31T11:47:53;11.80;99.90
47779;DHT22;33538;48.432;11.350;2023-10-31T11:50:20;11.90;99.90
47779;DHT22;33538;48.432;11.350;2023-10-31T11:53:04;11.90;99.90
47779;DHT22;33538;48.432;11.350;2023-10-31T11:55:33;11.90;99.90
47779;DHT22;33538;48.432;11.350;2023-10-31T11:58:16;11.90;99.90
47779;DHT22;33538;48.432;11.350;2023-10-31T12:00:43;11.90;99.90
47779;DHT22;33538;48.432;11.350;2023-10-31T12:03:10;11.90;99.90
47779;DHT22;33538;48.432;11.350;2023-10-31T12:05:37;11.90;99.90
47779;DHT22;33538;48.432;11.350;2023-10-31T12:08:04;11.90;99.90
47779;DHT22;33538;48.432;11.350;2023-10-31T12:10:31;11.90;99.90
47779;DHT22;33538;48.432;11.350;2023-10-31T12:12:58;12.00;99.90
47779;DHT22;33538;48.432;11.350;2023-10-31T12:15:26;12.00;99.90
47779;DHT22;33538;48.432;11.350;2023-10-31T12:17:58;12.00;99.90
47779;DHT22;33538;48.432;11.350;2023-10-31T12:20:25;12.00;99.90
47779;DHT22;33538;48.432;11.350;2023-10-31T12:23:02;12.00;99.90
47779;DHT22;33538;48.432;11.350;2023-10-31T12:25:29;12.10;99.90
47779;DHT22;33538;48.432;11.350;2023-10-31T12:27:56;12.10;99.90
47779;DHT22;33538;48.432;11.350;2023-10-31T12:30:23;12.10;99.90
47779;DHT22;33538;48.432;11.350;2023-10-31T12:32:55;12.10;99.90
47779;DHT22;33538;48.432;11.350;2023-10-31T12:35:23;12.10;99.90
47779;DHT22;33538;48.432;11.350;2023-10-31T12:37:50;12.10;99.90
47779;DHT22;33538;48.432;11.350;2023-10-31T12:40:18;12.10;99.90
47779;DHT22;33538;48.432;11.350;2023-10-31T12:42:46;12.10;99.90
47779;DHT22;33538;48.432;11.350;2023-10-31T12:45:14;12.00;99.90
47779;DHT22;33538;48.432;11.350;2023-10-31T12:47:41;12.10;99.90
47779;DHT22;33538;48.432;11.350;2023-10-31T12:50:12;12.00;99.90
47779;DHT22;33538;48.432;11.350;2023-10-31T12:52:52;12.00;99.90
47779;DHT22;33538;48.432;11.350;2023-10-31T12:55:20;12.10;99.90
47779;DHT22;33538;48.432;11.350;2023-10-31T12:57:48;12.10;99.90
47779;DHT22;33538;48.432;11.350;2023-10-31T13:00:16;12.10;99.90
47779;DHT22;33538;48.432;11.350;2023-10-31T13:02:43;12.10;99.90
47779;DHT22;33538;48.432;11.350;2023-10-31T13:05:13;12.10;99.90
47779;DHT22;33538;48.432;11.350;2023-10-31T13:07:47;12.10;99.90
47779;DHT22;33538;48.432;11.350;2023-10-31T13:10:15;12.10;99.90
47779;DHT22;33538;48.432;11.350;2023-10-31T13:12:44;12.10;99.90
47779;DHT22;33538;48.432;11.350;2023-10-31T13:15:11;12.00;99.90
47779;DHT22;33538;48.432;11.350;2023-10-31T13:17:38;12.10;99.90
47779;DHT22;33538;48.432;11.350;2023-10-31T13:20:06;12.10;99.90
47779;DHT22;33538;48.432;11.350;2023-10-31T13:22:35;12.10;99.90
47779;DHT22;33538;48.432;11.350;2023-10-31T13:25:03;12.10;99.90
47779;DHT22;33538;48.432;11.350;2023-10-31T13:27:30;12.00;99.90
47779;DHT22;33538;48.432;11.350;2023-10-31T13:29:56;12.10;99.90
47779;DHT22;33538;48.432;11.350;2023-10-31T13:32:23;12.10;99.90
47779;DHT22;33538;48.432;11.350;2023-10-31T13:34:50;12.10;99.90
47779;DHT22;33538;48.432;11.350;2023-10-31T13:37:17;12.10;99.90
47779;DHT22;33538;48.432;11.350;2023-10-31T13:39:45;12.10;99.90
47779;DHT22;33538;48.432;11.350;2023-10-31T13:42:12;12.10;99.90
47779;DHT22;33538;48.432;11.350;2023-10-31T13:44:39;12.10;99.90
47779;DHT22;33538;48.432;11.350;2023-10-31T13:47:06;12.10;99.90
47779;DHT22;33538;48.432;11.350;2023-10-31T13:49:33;12.10;99.90
47779;DHT22;33538;48.432;11.350;2023-10-31T13:52:00;12.10;99.90
47779;DHT22;33538;48.432;11.350;2023-10-31T13:54:26;12.10;99.90
47779;DHT22;33538;48.432;11.350;2023-10-31T13:56:55;12.10;99.90
47779;DHT22;33538;48.432;11.350;2023-10-31T13:59:21;12.10;99.90
47779;DHT22;33538;48.432;11.350;2023-10-31T14:01:48;12.10;99.90
47779;DHT22;33538;48.432;11.350;2023-10-31T14:04:15;12.10;99.90
47779;DHT22;33538;48.432;11.350;2023-10-31T14:06:42;12.10;99.90
47779;DHT22;33538;48.432;11.350;2023-10-31T14:09:10;12.10;99.90
47779;DHT22;33538;48.432;11.350;2023-10-31T14:11:39;12.10;99.90
47779;DHT22;33538;48.432;11.350;2023-10-31T14:14:07;12.10;99.90
47779;DHT22;33538;48.432;11.350;2023-10-31T14:16:34;12.10;99.90
47779;DHT22;33538;48.432;11.350;2023-10-31T14:19:02;12.10;99.90
47779;DHT22;33538;48.432;11.350;2023-10-31T14:21:29;12.10;99.90
47779;DHT22;33538;48.432;11.350;2023-10-31T14:23:55;12.00;99.90
47779;DHT22;33538;48.432;11.350;2023-10-31T14:26:34;12.10;99.90
47779;DHT22;33538;48.432;11.350;2023-10-31T14:29:01;12.10;99.90
47779;DHT22;33538;48.432;11.350;2023-10-31T14:31:29;12.00;99.90
47779;DHT22;33538;48.432;11.350;2023-10-31T14:33:56;12.00;99.90
47779;DHT22;33538;48.432;11.350;2023-10-31T14:36:23;12.00;99.90
47779;DHT22;33538;48.432;11.350;2023-10-31T14:38:50;12.00;99.90
47779;DHT22;33538;48.432;11.350;2023-10-31T14:41:16;12.00;99.90
47779;DHT22;33538;48.432;11.350;2023-10-31T14:43:43;12.00;99.90
47779;DHT22;33538;48.432;11.350;2023-10-31T14:46:10;12.00;99.90
47779;DHT22;33538;48.432;11.350;2023-10-31T14:48:38;12.00;99.90
47779;DHT22;33538;48.432;11.350;2023-10-31T14:51:05;12.00;99.90
47779;DHT22;33538;48.432;11.350;2023-10-31T14:53:32;12.00;99.90
47779;DHT22;33538;48.432;11.350;2023-10-31T14:55:59;12.00;99.90
47779;DHT22;33538;48.432;11.350;2023-10-31T14:58:26;12.00;99.90
47779;DHT22;33538;48.432;11.350;2023-10-31T15:00:53;12.00;99.90
47779;DHT22;33538;48.432;11.350;2023-10-31T15:03:20;12.00;99.90
47779;DHT22;33538;48.432;11.350;2023-10-31T15:05:48;12.00;99.90
47779;DHT22;33538;48.432;11.350;2023-10-31T15:08:15;12.00;99.90
47779;DHT22;33538;48.432;11.350;2023-10-31T15:10:42;12.00;99.90
47779;DHT22;33538;48.432;11.350;2023-10-31T15:13:08;12.00;99.90
47779;DHT22;33538;48.432;11.350;2023-10-31T15:15:35;12.00;99.90
47779;DHT22;33538;48.432;11.350;2023-10-31T15:18:02;12.00;99.90